sensor_id;sensor_type;location;lat;lon;timestamp;P1;durP1;ratioP1;P2;durP2;ratioP2
2772;SDS011;1394;47.044;15.744;2023-05-07T00:01:23;26.17;;;2.83;;
2772;SDS011;1394;47.044;15.744;2023-05-07T00:03:52;25.30;;;2.70;;
2772;SDS011;1394;47.044;15.744;2023-05-07T00:06:21;25.57;;;2.73;;
2772;SDS011;1394;47.044;15.744;2023-05-07T00:08:49;25.23;;;3.00;;
2772;SDS011;1394;47.044;15.744;2023-05-07T00:11:16;26.90;;;3.00;;
2772;SDS011;1394;47.044;15.744;2023-05-07T00:13:43;25.37;;;2.97;;
2772;SDS011;1394;47.044;15.744;2023-05-07T00:16:12;25.60;;;2.83;;
2772;SDS011;1394;47.044;15.744;2023-05-07T00:18:40;25.83;;;3.03;;
2772;SDS011;1394;47.044;15.744;2023-05-07T00:21:07;25.57;;;3.00;;
2772;SDS011;1394;47.044;15.744;2023-05-07T00:23:35;25.67;;;3.00;;
2772;SDS011;1394;47.044;15.744;2023-05-07T00:26:02;25.20;;;2.50;;
2772;SDS011;1394;47.044;15.744;2023-05-07T00:28:29;25.50;;;2.67;;
2772;SDS011;1394;47.044;15.744;2023-05-07T00:30:59;26.07;;;2.70;;
2772;SDS011;1394;47.044;15.744;2023-05-07T00:33:26;25.20;;;2.60;;
2772;SDS011;1394;47.044;15.744;2023-05-07T00:35:56;25.43;;;2.87;;
2772;SDS011;1394;47.044;15.744;2023-05-07T00:38:27;25.40;;;2.83;;
2772;SDS011;1394;47.044;15.744;2023-05-07T00:40:54;28.83;;;3.83;;
2772;SDS011;1394;47.044;15.744;2023-05-07T00:43:21;25.30;;;2.80;;
2772;SDS011;1394;47.044;15.744;2023-05-07T00:45:48;25.63;;;3.20;;
2772;SDS011;1394;47.044;15.744;2023-05-07T00:48:16;25.53;;;2.80;;
2772;SDS011;1394;47.044;15.744;2023-05-07T00:50:43;25.17;;;2.60;;
2772;SDS011;1394;47.044;15.744;2023-05-07T00:53:13;25.50;;;3.00;;
2772;SDS011;1394;47.044;15.744;2023-05-07T00:55:40;25.30;;;2.60;;
2772;SDS011;1394;47.044;15.744;2023-05-07T00:58:08;25.30;;;2.60;;
2772;SDS011;1394;47.044;15.744;2023-05-07T01:00:38;25.07;;;2.60;;
2772;SDS011;1394;47.044;15.744;2023-05-07T01:03:06;25.77;;;2.80;;
2772;SDS011;1394;47.044;15.744;2023-05-07T01:05:34;25.63;;;2.70;;
2772;SDS011;1394;47.044;15.744;2023-05-07T01:08:02;25.67;;;3.23;;
2772;SDS011;1394;47.044;15.744;2023-05-07T01:10:31;25.70;;;3.20;;
2772;SDS011;1394;47.044;15.744;2023-05-07T01:12:58;26.47;;;3.63;;
2772;SDS011;1394;47.044;15.744;2023-05-07T01:15:26;26.57;;;3.67;;
2772;SDS011;1394;47.044;15.744;2023-05-07T01:17:55;26.70;;;4.63;;
2772;SDS011;1394;47.044;15.744;2023-05-07T01:20:22;26.37;;;4.07;;
2772;SDS011;1394;47.044;15.744;2023-05-07T01:22:51;25.77;;;3.20;;
2772;SDS011;1394;47.044;15.744;2023-05-07T01:25:19;25.83;;;3.30;;
2772;SDS011;1394;47.044;15.744;2023-05-07T01:27:46;25.63;;;2.77;;
2772;SDS011;1394;47.044;15.744;2023-05-07T01:30:13;25.10;;;2.60;;
2772;SDS011;1394;47.044;15.744;2023-05-07T01:32:43;25.57;;;3.23;;
2772;SDS011;1394;47.044;15.744;2023-05-07T01:35:13;25.67;;;3.67;;
2772;SDS011;1394;47.044;15.744;2023-05-07T01:37:42;25.80;;;3.67;;
2772;SDS011;1394;47.044;15.744;2023-05-07T01:40:13;26.87;;;4.10;;
2772;SDS011;1394;47.044;15.744;2023-05-07T01:42:41;25.93;;;3.37;;
2772;SDS011;1394;47.044;15.744;2023-05-07T01:45:10;25.67;;;3.30;;
2772;SDS011;1394;47.044;15.744;2023-05-07T01:47:38;25.23;;;3.00;;
2772;SDS011;1394;47.044;15.744;2023-05-07T01:50:06;25.00;;;2.50;;
2772;SDS011;1394;47.044;15.744;2023-05-07T01:52:35;25.10;;;2.57;;
2772;SDS011;1394;47.044;15.744;2023-05-07T01:55:03;25.77;;;2.70;;
2772;SDS011;1394;47.044;15.744;2023-05-07T01:57:31;25.07;;;2.33;;
2772;SDS011;1394;47.044;15.744;2023-05-07T01:59:59;25.50;;;2.40;;
2772;SDS011;1394;47.044;15.744;2023-05-07T02:02:27;25.43;;;2.10;;
2772;SDS011;1394;47.044;15.744;2023-05-07T02:04:54;25.17;;;2.27;;
2772;SDS011;1394;47.044;15.744;2023-05-07T02:07:22;24.90;;;2.17;;
2772;SDS011;1394;47.044;15.744;2023-05-07T02:09:49;26.07;;;2.70;;
2772;SDS011;1394;47.044;15.744;2023-05-07T02:12:17;25.23;;;2.33;;
2772;SDS011;1394;47.044;15.744;2023-05-07T02:14:45;25.30;;;2.20;;
2772;SDS011;1394;47.044;15.744;2023-05-07T02:17:12;25.20;;;2.33;;
2772;SDS011;1394;47.044;15.744;2023-05-07T02:19:40;25.27;;;2.10;;
2772;SDS011;1394;47.044;15.744;2023-05-07T02:22:07;25.37;;;2.30;;
2772;SDS011;1394;47.044;15.744;2023-05-07T02:24:34;25.73;;;2.10;;
2772;SDS011;1394;47.044;15.744;2023-05-07T02:27:01;25.00;;;2.10;;
2772;SDS011;1394;47.044;15.744;2023-05-07T02:29:28;24.90;;;1.97;;
2772;SDS011;1394;47.044;15.744;2023-05-07T02:32:00;25.47;;;2.20;;
2772;SDS011;1394;47.044;15.744;2023-05-07T02:34:27;24.90;;;2.10;;
2772;SDS011;1394;47.044;15.744;2023-05-07T02:36:54;25.20;;;2.10;;
2772;SDS011;1394;47.044;15.744;2023-05-07T02:39:21;24.73;;;1.93;;
2772;SDS011;1394;47.044;15.744;2023-05-07T02:41:49;25.30;;;1.97;;
2772;SDS011;1394;47.044;15.744;2023-05-07T02:44:16;25.00;;;1.70;;
2772;SDS011;1394;47.044;15.744;2023-05-07T02:46:44;24.93;;;2.10;;
2772;SDS011;1394;47.044;15.744;2023-05-07T02:49:12;25.27;;;2.10;;
2772;SDS011;1394;47.044;15.744;2023-05-07T02:51:39;24.97;;;1.83;;
2772;SDS011;1394;47.044;15.744;2023-05-07T02:54:06;25.60;;;2.73;;
2772;SDS011;1394;47.044;15.744;2023-05-07T02:56:34;24.90;;;1.90;;
2772;SDS011;1394;47.044;15.744;2023-05-07T02:59:01;25.50;;;2.50;;
2772;SDS011;1394;47.044;15.744;2023-05-07T03:01:28;25.30;;;2.10;;
2772;SDS011;1394;47.044;15.744;2023-05-07T03:03:55;24.93;;;2.07;;
2772;SDS011;1394;47.044;15.744;2023-05-07T03:06:24;25.13;;;2.00;;
2772;SDS011;1394;47.044;15.744;2023-05-07T03:08:51;26.70;;;1.93;;
2772;SDS011;1394;47.044;15.744;2023-05-07T03:11:18;25.10;;;2.13;;
2772;SDS011;1394;47.044;15.744;2023-05-07T03:13:45;26.13;;;2.40;;
2772;SDS011;1394;47.044;15.744;2023-05-07T03:16:14;27.33;;;2.80;;
2772;SDS011;1394;47.044;15.744;2023-05-07T03:18:41;25.30;;;2.47;;
2772;SDS011;1394;47.044;15.744;2023-05-07T03:21:08;27.17;;;2.50;;
2772;SDS011;1394;47.044;15.744;2023-05-07T03:23:37;25.80;;;2.97;;
2772;SDS011;1394;47.044;15.744;2023-05-07T03:26:04;25.60;;;3.00;;
2772;SDS011;1394;47.044;15.744;2023-05-07T03:28:31;25.67;;;2.97;;
2772;SDS011;1394;47.044;15.744;2023-05-07T03:30:58;25.33;;;2.63;;
2772;SDS011;1394;47.044;15.744;2023-05-07T03:33:25;25.67;;;2.90;;
2772;SDS011;1394;47.044;15.744;2023-05-07T03:35:54;25.10;;;2.27;;
2772;SDS011;1394;47.044;15.744;2023-05-07T03:38:21;25.67;;;2.67;;
2772;SDS011;1394;47.044;15.744;2023-05-07T03:40:49;37.77;;;4.20;;
2772;SDS011;1394;47.044;15.744;2023-05-07T03:43:17;28.70;;;3.00;;
2772;SDS011;1394;47.044;15.744;2023-05-07T03:45:44;25.73;;;2.80;;
2772;SDS011;1394;47.044;15.744;2023-05-07T03:48:11;25.50;;;2.80;;
2772;SDS011;1394;47.044;15.744;2023-05-07T03:50:38;25.10;;;2.27;;
2772;SDS011;1394;47.044;15.744;2023-05-07T03:53:05;24.97;;;2.37;;
2772;SDS011;1394;47.044;15.744;2023-05-07T03:55:33;25.17;;;2.40;;
2772;SDS011;1394;47.044;15.744;2023-05-07T03:58:02;25.80;;;2.17;;
2772;SDS011;1394;47.044;15.744;2023-05-07T04:00:29;25.00;;;2.50;;
2772;SDS011;1394;47.044;15.744;2023-05-07T04:03:04;25.90;;;2.80;;
2772;SDS011;1394;47.044;15.744;2023-05-07T04:05:31;25.00;;;2.40;;
2772;SDS011;1394;47.044;15.744;2023-05-07T04:08:01;26.30;;;2.70;;
2772;SDS011;1394;47.044;15.744;2023-05-07T04:10:29;25.80;;;2.50;;
2772;SDS011;1394;47.044;15.744;2023-05-07T04:12:56;25.33;;;2.80;;
2772;SDS011;1394;47.044;15.744;2023-05-07T04:15:27;25.13;;;2.40;;
2772;SDS011;1394;47.044;15.744;2023-05-07T04:17:54;28.00;;;2.90;;
2772;SDS011;1394;47.044;15.744;2023-05-07T04:20:21;72.50;;;6.53;;
2772;SDS011;1394;47.044;15.744;2023-05-07T04:22:49;28.90;;;3.00;;
2772;SDS011;1394;47.044;15.744;2023-05-07T04:25:16;25.23;;;2.60;;
2772;SDS011;1394;47.044;15.744;2023-05-07T04:27:45;25.67;;;2.87;;
2772;SDS011;1394;47.044;15.744;2023-05-07T04:30:14;31.70;;;2.90;;
2772;SDS011;1394;47.044;15.744;2023-05-07T04:32:42;25.13;;;2.70;;
2772;SDS011;1394;47.044;15.744;2023-05-07T04:35:10;28.90;;;3.30;;
2772;SDS011;1394;47.044;15.744;2023-05-07T04:37:37;25.30;;;2.87;;
2772;SDS011;1394;47.044;15.744;2023-05-07T04:40:06;27.70;;;3.40;;
2772;SDS011;1394;47.044;15.744;2023-05-07T04:42:41;25.63;;;2.60;;
2772;SDS011;1394;47.044;15.744;2023-05-07T04:45:09;25.30;;;2.70;;
2772;SDS011;1394;47.044;15.744;2023-05-07T04:47:37;24.70;;;2.30;;
2772;SDS011;1394;47.044;15.744;2023-05-07T04:50:06;29.40;;;3.00;;
2772;SDS011;1394;47.044;15.744;2023-05-07T04:52:36;27.20;;;2.50;;
2772;SDS011;1394;47.044;15.744;2023-05-07T04:55:03;24.97;;;2.33;;
2772;SDS011;1394;47.044;15.744;2023-05-07T04:57:30;29.60;;;2.67;;
2772;SDS011;1394;47.044;15.744;2023-05-07T04:59:58;25.60;;;2.30;;
2772;SDS011;1394;47.044;15.744;2023-05-07T05:02:28;24.70;;;2.23;;
2772;SDS011;1394;47.044;15.744;2023-05-07T05:04:55;25.10;;;2.40;;
2772;SDS011;1394;47.044;15.744;2023-05-07T05:07:27;25.20;;;2.30;;
2772;SDS011;1394;47.044;15.744;2023-05-07T05:09:56;26.40;;;2.43;;
2772;SDS011;1394;47.044;15.744;2023-05-07T05:12:26;26.10;;;2.20;;
2772;SDS011;1394;47.044;15.744;2023-05-07T05:14:53;25.70;;;2.30;;
2772;SDS011;1394;47.044;15.744;2023-05-07T05:17:23;29.80;;;3.00;;
2772;SDS011;1394;47.044;15.744;2023-05-07T05:19:50;25.03;;;2.47;;
2772;SDS011;1394;47.044;15.744;2023-05-07T05:22:21;25.10;;;2.30;;
2772;SDS011;1394;47.044;15.744;2023-05-07T05:24:50;25.50;;;3.37;;
2772;SDS011;1394;47.044;15.744;2023-05-07T05:27:17;25.27;;;2.73;;
2772;SDS011;1394;47.044;15.744;2023-05-07T05:29:45;24.73;;;2.37;;
2772;SDS011;1394;47.044;15.744;2023-05-07T05:32:13;24.80;;;2.13;;
2772;SDS011;1394;47.044;15.744;2023-05-07T05:34:40;25.20;;;2.63;;
2772;SDS011;1394;47.044;15.744;2023-05-07T05:37:07;25.10;;;2.60;;
2772;SDS011;1394;47.044;15.744;2023-05-07T05:39:36;24.90;;;2.53;;
2772;SDS011;1394;47.044;15.744;2023-05-07T05:42:05;24.97;;;2.30;;
2772;SDS011;1394;47.044;15.744;2023-05-07T05:44:32;24.60;;;1.80;;
2772;SDS011;1394;47.044;15.744;2023-05-07T05:47:01;24.87;;;2.13;;
2772;SDS011;1394;47.044;15.744;2023-05-07T05:49:28;25.30;;;2.40;;
2772;SDS011;1394;47.044;15.744;2023-05-07T05:51:57;26.10;;;2.27;;
2772;SDS011;1394;47.044;15.744;2023-05-07T05:54:26;25.20;;;1.90;;
2772;SDS011;1394;47.044;15.744;2023-05-07T05:56:53;24.80;;;1.90;;
2772;SDS011;1394;47.044;15.744;2023-05-07T05:59:23;24.90;;;1.80;;
2772;SDS011;1394;47.044;15.744;2023-05-07T06:01:50;25.00;;;1.60;;
2772;SDS011;1394;47.044;15.744;2023-05-07T06:04:17;24.90;;;1.80;;
2772;SDS011;1394;47.044;15.744;2023-05-07T06:06:46;25.10;;;1.90;;
2772;SDS011;1394;47.044;15.744;2023-05-07T06:09:13;25.20;;;1.80;;
2772;SDS011;1394;47.044;15.744;2023-05-07T06:11:41;24.80;;;1.40;;
2772;SDS011;1394;47.044;15.744;2023-05-07T06:14:08;25.70;;;1.60;;
2772;SDS011;1394;47.044;15.744;2023-05-07T06:16:38;27.73;;;2.03;;
2772;SDS011;1394;47.044;15.744;2023-05-07T06:19:07;25.00;;;1.70;;
2772;SDS011;1394;47.044;15.744;2023-05-07T06:21:36;24.83;;;1.60;;
2772;SDS011;1394;47.044;15.744;2023-05-07T06:24:03;24.90;;;1.67;;
2772;SDS011;1394;47.044;15.744;2023-05-07T06:26:31;24.90;;;1.90;;
2772;SDS011;1394;47.044;15.744;2023-05-07T06:28:58;24.97;;;1.60;;
2772;SDS011;1394;47.044;15.744;2023-05-07T06:31:28;26.00;;;1.50;;
2772;SDS011;1394;47.044;15.744;2023-05-07T06:33:59;24.83;;;1.50;;
2772;SDS011;1394;47.044;15.744;2023-05-07T06:36:27;24.90;;;1.50;;
2772;SDS011;1394;47.044;15.744;2023-05-07T06:38:57;25.30;;;1.90;;
2772;SDS011;1394;47.044;15.744;2023-05-07T06:41:24;25.03;;;1.70;;
2772;SDS011;1394;47.044;15.744;2023-05-07T06:43:51;26.20;;;1.50;;
2772;SDS011;1394;47.044;15.744;2023-05-07T06:46:22;25.40;;;1.83;;
2772;SDS011;1394;47.044;15.744;2023-05-07T06:48:51;25.00;;;1.60;;
2772;SDS011;1394;47.044;15.744;2023-05-07T06:51:20;25.10;;;1.67;;
2772;SDS011;1394;47.044;15.744;2023-05-07T06:53:48;25.87;;;1.80;;
2772;SDS011;1394;47.044;15.744;2023-05-07T06:56:17;25.53;;;1.70;;
2772;SDS011;1394;47.044;15.744;2023-05-07T06:58:46;26.13;;;1.70;;
2772;SDS011;1394;47.044;15.744;2023-05-07T07:01:13;26.80;;;2.10;;
2772;SDS011;1394;47.044;15.744;2023-05-07T07:03:40;25.70;;;1.77;;
2772;SDS011;1394;47.044;15.744;2023-05-07T07:06:07;25.10;;;1.87;;
2772;SDS011;1394;47.044;15.744;2023-05-07T07:08:37;25.30;;;2.00;;
2772;SDS011;1394;47.044;15.744;2023-05-07T07:11:04;25.10;;;1.90;;
2772;SDS011;1394;47.044;15.744;2023-05-07T07:13:32;27.60;;;2.30;;
2772;SDS011;1394;47.044;15.744;2023-05-07T07:15:59;25.90;;;1.97;;
2772;SDS011;1394;47.044;15.744;2023-05-07T07:18:27;25.70;;;2.30;;
2772;SDS011;1394;47.044;15.744;2023-05-07T07:20:55;25.33;;;2.03;;
2772;SDS011;1394;47.044;15.744;2023-05-07T07:23:24;25.90;;;2.10;;
2772;SDS011;1394;47.044;15.744;2023-05-07T07:25:54;25.40;;;2.10;;
2772;SDS011;1394;47.044;15.744;2023-05-07T07:28:21;28.40;;;2.27;;
2772;SDS011;1394;47.044;15.744;2023-05-07T07:30:48;26.10;;;2.00;;
2772;SDS011;1394;47.044;15.744;2023-05-07T07:33:18;26.33;;;2.20;;
2772;SDS011;1394;47.044;15.744;2023-05-07T07:35:46;26.27;;;1.87;;
2772;SDS011;1394;47.044;15.744;2023-05-07T07:38:13;25.60;;;2.27;;
2772;SDS011;1394;47.044;15.744;2023-05-07T07:40:41;31.70;;;2.37;;
2772;SDS011;1394;47.044;15.744;2023-05-07T07:43:10;25.63;;;1.93;;
2772;SDS011;1394;47.044;15.744;2023-05-07T07:45:39;25.17;;;1.70;;
2772;SDS011;1394;47.044;15.744;2023-05-07T07:48:11;26.60;;;1.93;;
2772;SDS011;1394;47.044;15.744;2023-05-07T07:50:38;25.30;;;1.87;;
2772;SDS011;1394;47.044;15.744;2023-05-07T07:53:08;25.40;;;1.90;;
2772;SDS011;1394;47.044;15.744;2023-05-07T07:55:37;26.50;;;1.90;;
2772;SDS011;1394;47.044;15.744;2023-05-07T07:58:05;25.10;;;1.57;;
2772;SDS011;1394;47.044;15.744;2023-05-07T08:00:33;25.23;;;1.50;;
2772;SDS011;1394;47.044;15.744;2023-05-07T08:03:01;25.67;;;1.70;;
2772;SDS011;1394;47.044;15.744;2023-05-07T08:05:30;25.40;;;1.67;;
2772;SDS011;1394;47.044;15.744;2023-05-07T08:08:02;26.50;;;1.33;;
2772;SDS011;1394;47.044;15.744;2023-05-07T08:10:29;25.43;;;1.43;;
2772;SDS011;1394;47.044;15.744;2023-05-07T08:12:59;25.30;;;1.50;;
2772;SDS011;1394;47.044;15.744;2023-05-07T08:15:28;25.30;;;1.50;;
2772;SDS011;1394;47.044;15.744;2023-05-07T08:18:00;27.40;;;1.80;;
2772;SDS011;1394;47.044;15.744;2023-05-07T08:20:28;26.40;;;1.73;;
2772;SDS011;1394;47.044;15.744;2023-05-07T08:22:57;25.13;;;1.47;;
2772;SDS011;1394;47.044;15.744;2023-05-07T08:25:24;25.77;;;1.63;;
2772;SDS011;1394;47.044;15.744;2023-05-07T08:27:51;25.50;;;1.60;;
2772;SDS011;1394;47.044;15.744;2023-05-07T08:30:18;25.47;;;1.40;;
2772;SDS011;1394;47.044;15.744;2023-05-07T08:32:46;26.17;;;1.80;;
2772;SDS011;1394;47.044;15.744;2023-05-07T08:35:15;28.40;;;1.60;;
2772;SDS011;1394;47.044;15.744;2023-05-07T08:37:42;25.93;;;1.87;;
2772;SDS011;1394;47.044;15.744;2023-05-07T08:40:10;25.30;;;1.30;;
2772;SDS011;1394;47.044;15.744;2023-05-07T08:42:38;25.57;;;1.60;;
2772;SDS011;1394;47.044;15.744;2023-05-07T08:45:09;25.43;;;1.47;;
2772;SDS011;1394;47.044;15.744;2023-05-07T08:47:40;25.63;;;1.70;;
2772;SDS011;1394;47.044;15.744;2023-05-07T08:50:15;26.63;;;1.40;;
2772;SDS011;1394;47.044;15.744;2023-05-07T08:52:44;26.07;;;1.90;;
2772;SDS011;1394;47.044;15.744;2023-05-07T08:55:12;25.53;;;1.67;;
2772;SDS011;1394;47.044;15.744;2023-05-07T08:57:40;25.30;;;1.30;;
2772;SDS011;1394;47.044;15.744;2023-05-07T09:00:09;25.33;;;1.57;;
2772;SDS011;1394;47.044;15.744;2023-05-07T09:02:38;25.50;;;1.70;;
2772;SDS011;1394;47.044;15.744;2023-05-07T09:05:07;25.70;;;1.63;;
2772;SDS011;1394;47.044;15.744;2023-05-07T09:07:35;25.87;;;1.97;;
2772;SDS011;1394;47.044;15.744;2023-05-07T09:10:04;25.40;;;1.63;;
2772;SDS011;1394;47.044;15.744;2023-05-07T09:12:32;25.30;;;1.60;;
2772;SDS011;1394;47.044;15.744;2023-05-07T09:15:01;25.40;;;1.40;;
2772;SDS011;1394;47.044;15.744;2023-05-07T09:17:29;25.30;;;1.50;;
2772;SDS011;1394;47.044;15.744;2023-05-07T09:20:01;25.30;;;1.50;;
2772;SDS011;1394;47.044;15.744;2023-05-07T09:22:31;25.80;;;1.80;;
2772;SDS011;1394;47.044;15.744;2023-05-07T09:24:59;25.60;;;1.80;;
2772;SDS011;1394;47.044;15.744;2023-05-07T09:27:29;25.50;;;1.37;;
2772;SDS011;1394;47.044;15.744;2023-05-07T09:29:58;25.50;;;1.37;;
2772;SDS011;1394;47.044;15.744;2023-05-07T09:32:25;25.80;;;1.10;;
2772;SDS011;1394;47.044;15.744;2023-05-07T09:34:53;25.57;;;1.20;;
2772;SDS011;1394;47.044;15.744;2023-05-07T09:37:21;25.50;;;1.10;;
2772;SDS011;1394;47.044;15.744;2023-05-07T09:39:54;27.87;;;1.30;;
2772;SDS011;1394;47.044;15.744;2023-05-07T09:42:23;29.80;;;1.40;;
2772;SDS011;1394;47.044;15.744;2023-05-07T09:44:55;26.43;;;1.10;;
2772;SDS011;1394;47.044;15.744;2023-05-07T09:47:25;25.40;;;1.00;;
2772;SDS011;1394;47.044;15.744;2023-05-07T09:49:55;28.40;;;1.30;;
2772;SDS011;1394;47.044;15.744;2023-05-07T09:52:24;25.10;;;1.07;;
2772;SDS011;1394;47.044;15.744;2023-05-07T09:54:58;25.57;;;1.17;;
2772;SDS011;1394;47.044;15.744;2023-05-07T09:57:26;26.80;;;1.10;;
2772;SDS011;1394;47.044;15.744;2023-05-07T09:59:56;25.00;;;1.10;;
2772;SDS011;1394;47.044;15.744;2023-05-07T10:02:23;25.67;;;0.97;;
2772;SDS011;1394;47.044;15.744;2023-05-07T10:04:53;25.50;;;1.10;;
2772;SDS011;1394;47.044;15.744;2023-05-07T10:07:21;25.77;;;1.33;;
2772;SDS011;1394;47.044;15.744;2023-05-07T10:09:50;25.70;;;1.20;;
2772;SDS011;1394;47.044;15.744;2023-05-07T10:12:20;25.77;;;1.10;;
2772;SDS011;1394;47.044;15.744;2023-05-07T10:14:50;24.80;;;0.80;;
2772;SDS011;1394;47.044;15.744;2023-05-07T10:17:19;25.27;;;1.10;;
2772;SDS011;1394;47.044;15.744;2023-05-07T10:19:48;25.30;;;1.00;;
2772;SDS011;1394;47.044;15.744;2023-05-07T10:22:15;25.57;;;1.20;;
2772;SDS011;1394;47.044;15.744;2023-05-07T10:24:43;25.10;;;1.10;;
2772;SDS011;1394;47.044;15.744;2023-05-07T10:27:12;25.00;;;0.83;;
2772;SDS011;1394;47.044;15.744;2023-05-07T10:29:44;25.40;;;1.30;;
2772;SDS011;1394;47.044;15.744;2023-05-07T10:32:25;25.17;;;0.80;;
2772;SDS011;1394;47.044;15.744;2023-05-07T10:34:57;25.40;;;1.30;;
2772;SDS011;1394;47.044;15.744;2023-05-07T10:37:26;25.00;;;1.00;;
2772;SDS011;1394;47.044;15.744;2023-05-07T10:39:54;25.10;;;1.10;;
2772;SDS011;1394;47.044;15.744;2023-05-07T10:42:22;25.20;;;1.00;;
2772;SDS011;1394;47.044;15.744;2023-05-07T10:44:51;25.20;;;0.90;;
2772;SDS011;1394;47.044;15.744;2023-05-07T10:47:25;25.10;;;0.80;;
2772;SDS011;1394;47.044;15.744;2023-05-07T10:52:38;27.00;;;0.90;;
2772;SDS011;1394;47.044;15.744;2023-05-07T10:55:21;25.00;;;0.70;;
2772;SDS011;1394;47.044;15.744;2023-05-07T10:57:50;25.00;;;0.80;;
2772;SDS011;1394;47.044;15.744;2023-05-07T11:03:07;25.13;;;0.90;;
2772;SDS011;1394;47.044;15.744;2023-05-07T11:05:35;25.30;;;0.90;;
2772;SDS011;1394;47.044;15.744;2023-05-07T11:08:04;25.17;;;0.90;;
2772;SDS011;1394;47.044;15.744;2023-05-07T11:10:48;24.90;;;0.80;;
2772;SDS011;1394;47.044;15.744;2023-05-07T11:13:16;25.30;;;0.90;;
2772;SDS011;1394;47.044;15.744;2023-05-07T11:15:43;25.27;;;0.90;;
2772;SDS011;1394;47.044;15.744;2023-05-07T11:18:13;25.10;;;0.90;;
2772;SDS011;1394;47.044;15.744;2023-05-07T11:26:12;25.00;;;0.80;;
2772;SDS011;1394;47.044;15.744;2023-05-07T11:28:41;25.40;;;1.00;;
2772;SDS011;1394;47.044;15.744;2023-05-07T11:31:11;25.17;;;0.87;;
2772;SDS011;1394;47.044;15.744;2023-05-07T11:33:39;25.20;;;1.00;;
2772;SDS011;1394;47.044;15.744;2023-05-07T11:36:07;25.73;;;1.03;;
2772;SDS011;1394;47.044;15.744;2023-05-07T11:38:35;24.90;;;0.87;;
2772;SDS011;1394;47.044;15.744;2023-05-07T11:41:02;25.17;;;0.77;;
2772;SDS011;1394;47.044;15.744;2023-05-07T11:43:32;25.17;;;1.00;;
2772;SDS011;1394;47.044;15.744;2023-05-07T11:46:07;25.30;;;0.80;;
2772;SDS011;1394;47.044;15.744;2023-05-07T11:48:36;25.27;;;0.87;;
2772;SDS011;1394;47.044;15.744;2023-05-07T11:51:05;25.20;;;0.80;;
2772;SDS011;1394;47.044;15.744;2023-05-07T11:53:37;25.07;;;0.80;;
2772;SDS011;1394;47.044;15.744;2023-05-07T11:56:06;25.33;;;0.83;;
2772;SDS011;1394;47.044;15.744;2023-05-07T11:58:34;24.90;;;0.80;;
2772;SDS011;1394;47.044;15.744;2023-05-07T12:01:01;25.37;;;1.00;;
2772;SDS011;1394;47.044;15.744;2023-05-07T12:03:31;25.00;;;0.90;;
2772;SDS011;1394;47.044;15.744;2023-05-07T12:05:59;25.17;;;0.93;;
2772;SDS011;1394;47.044;15.744;2023-05-07T12:08:28;24.93;;;0.87;;
2772;SDS011;1394;47.044;15.744;2023-05-07T12:10:56;25.20;;;0.80;;
2772;SDS011;1394;47.044;15.744;2023-05-07T12:13:24;25.00;;;0.80;;
2772;SDS011;1394;47.044;15.744;2023-05-07T12:15:52;25.47;;;0.83;;
2772;SDS011;1394;47.044;15.744;2023-05-07T12:18:22;24.97;;;0.70;;
2772;SDS011;1394;47.044;15.744;2023-05-07T12:20:52;25.07;;;0.83;;
2772;SDS011;1394;47.044;15.744;2023-05-07T12:23:21;25.00;;;0.83;;
2772;SDS011;1394;47.044;15.744;2023-05-07T12:25:50;25.00;;;0.77;;
2772;SDS011;1394;47.044;15.744;2023-05-07T12:28:17;25.00;;;0.90;;
2772;SDS011;1394;47.044;15.744;2023-05-07T12:30:46;25.10;;;1.00;;
2772;SDS011;1394;47.044;15.744;2023-05-07T12:33:16;24.80;;;0.80;;
2772;SDS011;1394;47.044;15.744;2023-05-07T12:35:43;24.90;;;0.83;;
2772;SDS011;1394;47.044;15.744;2023-05-07T12:38:12;25.10;;;0.70;;
2772;SDS011;1394;47.044;15.744;2023-05-07T12:40:43;25.00;;;0.80;;
2772;SDS011;1394;47.044;15.744;2023-05-07T12:43:17;25.00;;;0.70;;
2772;SDS011;1394;47.044;15.744;2023-05-07T12:45:46;25.00;;;0.80;;
2772;SDS011;1394;47.044;15.744;2023-05-07T12:48:15;25.87;;;0.80;;
2772;SDS011;1394;47.044;15.744;2023-05-07T12:50:43;26.90;;;1.10;;
2772;SDS011;1394;47.044;15.744;2023-05-07T12:53:12;25.63;;;0.80;;
2772;SDS011;1394;47.044;15.744;2023-05-07T12:55:42;25.23;;;0.90;;
2772;SDS011;1394;47.044;15.744;2023-05-07T12:58:19;27.77;;;0.80;;
2772;SDS011;1394;47.044;15.744;2023-05-07T13:00:47;24.90;;;0.83;;
2772;SDS011;1394;47.044;15.744;2023-05-07T13:03:27;25.07;;;0.90;;
2772;SDS011;1394;47.044;15.744;2023-05-07T13:05:57;25.20;;;0.80;;
2772;SDS011;1394;47.044;15.744;2023-05-07T13:08:26;25.70;;;1.20;;
2772;SDS011;1394;47.044;15.744;2023-05-07T13:10:53;25.30;;;1.40;;
2772;SDS011;1394;47.044;15.744;2023-05-07T13:13:24;25.60;;;1.20;;
2772;SDS011;1394;47.044;15.744;2023-05-07T13:15:52;25.70;;;1.20;;
2772;SDS011;1394;47.044;15.744;2023-05-07T13:18:21;28.90;;;1.40;;
2772;SDS011;1394;47.044;15.744;2023-05-07T13:20:48;25.97;;;1.50;;
2772;SDS011;1394;47.044;15.744;2023-05-07T13:23:16;28.60;;;1.43;;
2772;SDS011;1394;47.044;15.744;2023-05-07T13:25:44;26.00;;;2.00;;
2772;SDS011;1394;47.044;15.744;2023-05-07T13:28:12;26.00;;;2.00;;
2772;SDS011;1394;47.044;15.744;2023-05-07T13:30:41;27.90;;;3.30;;
2772;SDS011;1394;47.044;15.744;2023-05-07T13:33:08;27.07;;;2.40;;
2772;SDS011;1394;47.044;15.744;2023-05-07T13:35:37;27.70;;;2.53;;
2772;SDS011;1394;47.044;15.744;2023-05-07T13:38:04;26.57;;;2.70;;
2772;SDS011;1394;47.044;15.744;2023-05-07T13:40:37;27.27;;;3.00;;
2772;SDS011;1394;47.044;15.744;2023-05-07T13:43:05;26.67;;;3.07;;
2772;SDS011;1394;47.044;15.744;2023-05-07T13:45:33;27.03;;;2.73;;
2772;SDS011;1394;47.044;15.744;2023-05-07T13:48:03;28.20;;;3.10;;
2772;SDS011;1394;47.044;15.744;2023-05-07T13:50:30;26.00;;;2.63;;
2772;SDS011;1394;47.044;15.744;2023-05-07T13:52:57;27.33;;;3.30;;
2772;SDS011;1394;47.044;15.744;2023-05-07T13:55:24;26.70;;;3.33;;
2772;SDS011;1394;47.044;15.744;2023-05-07T13:57:55;26.87;;;3.47;;
2772;SDS011;1394;47.044;15.744;2023-05-07T14:00:23;27.27;;;3.80;;
2772;SDS011;1394;47.044;15.744;2023-05-07T14:02:53;26.37;;;3.40;;
2772;SDS011;1394;47.044;15.744;2023-05-07T14:05:24;26.70;;;3.50;;
2772;SDS011;1394;47.044;15.744;2023-05-07T14:07:53;26.63;;;3.70;;
2772;SDS011;1394;47.044;15.744;2023-05-07T14:10:23;27.00;;;3.90;;
2772;SDS011;1394;47.044;15.744;2023-05-07T14:12:52;27.83;;;3.50;;
2772;SDS011;1394;47.044;15.744;2023-05-07T14:15:19;27.00;;;3.40;;
2772;SDS011;1394;47.044;15.744;2023-05-07T14:17:48;26.40;;;3.47;;
2772;SDS011;1394;47.044;15.744;2023-05-07T14:20:15;26.63;;;3.70;;
2772;SDS011;1394;47.044;15.744;2023-05-07T14:22:53;26.33;;;3.33;;
2772;SDS011;1394;47.044;15.744;2023-05-07T14:25:20;26.90;;;4.00;;
2772;SDS011;1394;47.044;15.744;2023-05-07T14:27:47;26.37;;;3.63;;
2772;SDS011;1394;47.044;15.744;2023-05-07T14:30:14;26.50;;;3.77;;
2772;SDS011;1394;47.044;15.744;2023-05-07T14:32:44;26.47;;;3.93;;
2772;SDS011;1394;47.044;15.744;2023-05-07T14:35:14;26.30;;;3.27;;
2772;SDS011;1394;47.044;15.744;2023-05-07T14:37:42;27.10;;;4.07;;
2772;SDS011;1394;47.044;15.744;2023-05-07T14:40:11;26.60;;;3.83;;
2772;SDS011;1394;47.044;15.744;2023-05-07T14:42:39;26.40;;;3.60;;
2772;SDS011;1394;47.044;15.744;2023-05-07T14:45:08;29.13;;;4.03;;
2772;SDS011;1394;47.044;15.744;2023-05-07T14:47:40;26.57;;;3.73;;
2772;SDS011;1394;47.044;15.744;2023-05-07T14:50:08;28.60;;;4.00;;
2772;SDS011;1394;47.044;15.744;2023-05-07T14:52:37;26.50;;;3.60;;
2772;SDS011;1394;47.044;15.744;2023-05-07T14:55:05;26.20;;;3.60;;
2772;SDS011;1394;47.044;15.744;2023-05-07T14:57:34;28.40;;;3.50;;
2772;SDS011;1394;47.044;15.744;2023-05-07T15:00:04;26.87;;;3.73;;
2772;SDS011;1394;47.044;15.744;2023-05-07T15:02:34;26.50;;;3.60;;
2772;SDS011;1394;47.044;15.744;2023-05-07T15:05:04;26.67;;;4.10;;
2772;SDS011;1394;47.044;15.744;2023-05-07T15:07:34;28.33;;;3.90;;